Kezdőlap
METAR-TAF:

METAR-TAF

Repülőterek :

Kangiqsujuaq, Québec, Kanada

földrajzi szélesség: 61-35N, földrajzi hosszúság: 071-56W, magasság: 151 m

Jelenlegi meteorológiai megfigyelések

A jelentés 10 órával és 45 perccel ezelõtt készült, 22:00 UTC
Keleti szél 3 kt
Hőmérséklet -23°C
Páratartalom 52%
Légköri nyomás 1027 hPa
Látótávolság: 24.1 km
Derült ég

METAR: CYKG 262200Z 08003KT 15SM SKC M23/M30 A3032 RMK SNW CVR/TR LOOSE/LAST STFD OBS/NXT OBS 271300 UTC SLP294

Idő: 03:45 (08:45 UTC)

Előrejelzés

A jelentés 18 órával és 7 perccel ezelõtt készült, 14:38 UTC
Az előrejelzés 26-én 15 óra UTC és 26-én 22 óra UTC között érvényes
Különbözõ irányokból fújó szél 3 kt
Látótávolság: 10 km
Szórványos felhőzet 5000 lábon
26-én 19 óra UTC és 26-én 21 óra UTC között fokozatosan kialakuló
Északnyugati szél 10 kt

TAF: CYKG 261438Z 2615/2622 VRB03KT P6SM SCT050 BECMG 2619/2621 31010KT RMK NXT FCST WILL BE ISSUED AT 271445Z

Meteorológiai megfigyelések és előrejelzések több, mint 4000 repülőtéren (METAR és TAF jelentéseket).

A térképen piros és sárga pontok jelzik az elérhető meteorológiai állomásokat.

Mozgassa az egeret a pont fölött, hogy megjelenjen az állomás neve.

Azután kattintson az időjárási megfigyelések és előrejelzések megtekintéséhez.

A térkép megváltoztatása: kattintson a fekete keresztel jelölt zöld gombra ráközelítéshez, a vonallal jelölt zöld gombra távolításhoz, vagy a zöld nyilakra a szomszédos térképek eléréséhez.


METAR-TAF: